Time;durP1;ratioP1;P1;durP2;ratioP2;P2;SDS_P1;SDS_P2;PMS_P1;PMS_P2;Temp;Humidity;BMP_temperature;BMP_pressure;BME280_temperature;BME280_humidity;BME280_pressure;Samples;Min_cycle;Max_cycle;Signal;HPM_P1;HPM_P2
2022/04/21 00:01:02;;;;;;;6.37;3.80;;;;;;;;;;5021836;28;20544;-85
2022/04/21 00:03:28;;;;;;;4.53;4.30;;;;;;;;;;5028951;28;20422;-84
2022/04/21 00:05:54;;;;;;;4.73;4.53;;;;;;;;;;5003260;28;20445;-85
2022/04/21 00:08:20;;;;;;;4.90;4.50;;;;;;;;;;5028099;28;20931;-85
2022/04/21 00:10:46;;;;;;;4.90;4.80;;;;;;;;;;5023910;28;20422;-84
2022/04/21 00:13:12;;;;;;;4.63;4.50;;;;;;;;;;5028048;28;20426;-85
2022/04/21 00:15:39;;;;;;;4.90;4.60;;;;;;;;;;5008235;28;20458;-86
2022/04/21 00:18:05;;;;;;;4.90;4.60;;;;;;;;;;5028704;28;20425;-84
2022/04/21 00:20:31;;;;;;;5.30;4.90;;;;;;;;;;5011637;28;20478;-85
2022/04/21 00:25:42;;;;;;;4.53;4.33;;;;;;;;;;5026004;28;20461;-85
2022/04/21 00:28:08;;;;;;;5.07;4.60;;;;;;;;;;5027860;28;20455;-85
2022/04/21 00:30:34;;;;;;;4.40;4.23;;;;;;;;;;5025152;28;20842;-84
2022/04/21 00:33:00;;;;;;;4.27;4.17;;;;;;;;;;5000984;28;20445;-83
2022/04/21 00:35:26;;;;;;;4.77;4.50;;;;;;;;;;5005338;28;20522;-85
2022/04/21 00:37:56;;;;;;;4.53;4.43;;;;;;;;;;5027198;28;20956;-85
2022/04/21 00:40:23;;;;;;;4.50;4.30;;;;;;;;;;5007651;28;20809;-84
2022/04/21 00:42:49;;;;;;;4.57;4.47;;;;;;;;;;5008781;28;20446;-85
2022/04/21 00:45:15;;;;;;;4.83;4.43;;;;;;;;;;5008868;28;20420;-84
2022/04/21 00:47:44;;;;;;;4.50;4.40;;;;;;;;;;4999523;28;20422;-83
2022/04/21 00:50:12;;;;;;;4.73;4.53;;;;;;;;;;5025541;28;20435;-84
2022/04/21 00:52:39;;;;;;;4.90;4.70;;;;;;;;;;5025376;28;20513;-86
2022/04/21 00:55:05;;;;;;;5.70;5.30;;;;;;;;;;5017984;28;20972;-85
2022/04/21 00:57:31;;;;;;;5.67;5.20;;;;;;;;;;5025340;28;20447;-84
2022/04/21 00:59:58;;;;;;;5.10;4.90;;;;;;;;;;5020132;28;20577;-84
2022/04/21 01:02:46;;;;;;;5.47;5.27;;;;;;;;;;5039577;28;20444;-84
2022/04/21 01:05:12;;;;;;;4.90;4.70;;;;;;;;;;5009312;28;20418;-84
2022/04/21 01:07:39;;;;;;;5.20;4.90;;;;;;;;;;5017374;28;20482;-85
2022/04/21 01:10:06;;;;;;;5.13;4.83;;;;;;;;;;5022565;28;20426;-85
2022/04/21 01:12:32;;;;;;;6.13;5.07;;;;;;;;;;5033425;28;20438;-85
2022/04/21 01:14:58;;;;;;;5.47;5.23;;;;;;;;;;5004048;28;20806;-84
2022/04/21 01:17:34;;;;;;;4.80;4.70;;;;;;;;;;5040887;28;20433;-85
2022/04/21 01:20:00;;;;;;;4.77;4.57;;;;;;;;;;5022723;28;20505;-85
2022/04/21 01:22:26;;;;;;;5.90;5.47;;;;;;;;;;5023256;28;20447;-85
2022/04/21 01:24:52;;;;;;;5.47;5.07;;;;;;;;;;5005655;28;20438;-87
2022/04/21 01:27:18;;;;;;;4.97;4.57;;;;;;;;;;5037557;28;20963;-86
2022/04/21 01:29:45;;;;;;;5.33;5.07;;;;;;;;;;5006451;28;20537;-86
2022/04/21 01:32:20;;;;;;;6.53;4.80;;;;;;;;;;5008270;28;20525;-86
2022/04/21 01:34:46;;;;;;;5.33;5.13;;;;;;;;;;5012759;28;20446;-86
2022/04/21 01:42:41;;;;;;;5.30;5.10;;;;;;;;;;5015478;28;20769;-86
2022/04/21 01:45:10;;;;;;;6.53;6.13;;;;;;;;;;5019088;28;20427;-86
2022/04/21 01:47:36;;;;;;;6.10;5.70;;;;;;;;;;5026526;28;20439;-86
2022/04/21 01:50:07;;;;;;;5.73;5.43;;;;;;;;;;5015516;28;20790;-86
2022/04/21 01:52:33;;;;;;;5.50;5.20;;;;;;;;;;5033632;28;20509;-86
2022/04/21 01:54:59;;;;;;;7.90;7.40;;;;;;;;;;5002829;28;20547;-86
2022/04/21 01:57:26;;;;;;;5.90;5.50;;;;;;;;;;5015837;28;20446;-86
2022/04/21 01:59:52;;;;;;;6.30;6.00;;;;;;;;;;5026852;28;20478;-86
2022/04/21 02:02:18;;;;;;;6.20;5.90;;;;;;;;;;5026820;28;20426;-86
2022/04/21 02:04:44;;;;;;;6.77;6.20;;;;;;;;;;5026598;28;20470;-85
2022/04/21 02:07:11;;;;;;;7.37;6.77;;;;;;;;;;5045179;28;20436;-86
2022/04/21 02:09:37;;;;;;;6.13;5.90;;;;;;;;;;5023222;28;20488;-86
2022/04/21 02:12:06;;;;;;;6.70;6.30;;;;;;;;;;5025972;28;20431;-86
2022/04/21 02:14:32;;;;;;;7.07;6.50;;;;;;;;;;5026255;28;20441;-85
2022/04/21 02:16:58;;;;;;;6.20;5.90;;;;;;;;;;5017928;28;20683;-86
2022/04/21 02:19:24;;;;;;;6.10;5.70;;;;;;;;;;5006875;28;21073;-85
2022/04/21 02:21:50;;;;;;;6.83;6.33;;;;;;;;;;5011050;28;20971;-85
2022/04/21 02:24:16;;;;;;;6.37;5.93;;;;;;;;;;5012098;28;20428;-86
2022/04/21 02:26:42;;;;;;;5.80;5.50;;;;;;;;;;5033248;28;20453;-86
2022/04/21 02:29:08;;;;;;;7.10;6.70;;;;;;;;;;5000955;28;20437;-86
2022/04/21 02:31:34;;;;;;;6.77;6.27;;;;;;;;;;5002610;28;20447;-86
2022/04/21 02:34:00;;;;;;;5.30;5.10;;;;;;;;;;5007853;28;20782;-85
2022/04/21 02:36:26;;;;;;;6.07;5.57;;;;;;;;;;5030026;28;20434;-85
2022/04/21 02:38:52;;;;;;;6.70;6.20;;;;;;;;;;5011845;28;20450;-86
2022/04/21 02:41:18;;;;;;;6.70;6.30;;;;;;;;;;5028664;28;20481;-86
2022/04/21 02:43:44;;;;;;;6.47;5.87;;;;;;;;;;5000151;28;20778;-85
2022/04/21 02:46:10;;;;;;;6.60;6.13;;;;;;;;;;5025653;28;20447;-85
2022/04/21 02:48:36;;;;;;;6.70;6.03;;;;;;;;;;5011780;28;20950;-86
2022/04/21 02:51:04;;;;;;;4.93;4.83;;;;;;;;;;5027111;28;20530;-86
2022/04/21 02:59:00;;;;;;;6.17;5.50;;;;;;;;;;5029373;28;20409;-85
2022/04/21 03:01:26;;;;;;;6.50;6.30;;;;;;;;;;5027266;28;21060;-86
2022/04/21 03:03:54;;;;;;;6.20;5.90;;;;;;;;;;5010920;28;20526;-86
2022/04/21 03:06:20;;;;;;;7.90;6.50;;;;;;;;;;5009466;28;20643;-85
2022/04/21 03:08:46;;;;;;;6.57;6.03;;;;;;;;;;5000211;28;20530;-86
2022/04/21 03:11:12;;;;;;;5.93;5.53;;;;;;;;;;5024524;28;20983;-86
2022/04/21 03:13:38;;;;;;;6.40;6.10;;;;;;;;;;5012231;28;20463;-86
2022/04/21 03:16:05;;;;;;;6.03;5.73;;;;;;;;;;5026907;28;20451;-85
2022/04/21 03:18:31;;;;;;;9.17;6.47;;;;;;;;;;5011573;28;20449;-86
2022/04/21 03:26:26;;;;;;;7.10;6.70;;;;;;;;;;5022757;28;20426;-86
2022/04/21 03:28:52;;;;;;;6.63;6.30;;;;;;;;;;5010978;28;20435;-86
2022/04/21 03:31:18;;;;;;;7.17;6.47;;;;;;;;;;5019290;28;20437;-86
2022/04/21 03:33:44;;;;;;;7.13;6.47;;;;;;;;;;5028643;28;20916;-87
2022/04/21 03:36:11;;;;;;;7.77;7.00;;;;;;;;;;5001535;28;20442;-86
2022/04/21 03:38:39;;;;;;;7.37;6.80;;;;;;;;;;5026337;28;20513;-86
2022/04/21 03:41:05;;;;;;;12.10;6.53;;;;;;;;;;5026509;28;20528;-86
2022/04/21 03:43:31;;;;;;;7.77;7.13;;;;;;;;;;5028429;28;20782;-86
2022/04/21 03:45:57;;;;;;;7.20;6.70;;;;;;;;;;5008321;28;20438;-87
2022/04/21 03:48:23;;;;;;;6.10;5.70;;;;;;;;;;5028211;28;20708;-86
2022/04/21 03:50:49;;;;;;;7.27;6.77;;;;;;;;;;5027242;28;20528;-86
2022/04/21 03:53:16;;;;;;;6.60;6.20;;;;;;;;;;5028245;28;20423;-86
2022/04/21 03:55:42;;;;;;;7.07;6.47;;;;;;;;;;5030065;28;20445;-86
2022/04/21 03:58:08;;;;;;;6.43;6.03;;;;;;;;;;5013306;28;20445;-86
2022/04/21 04:00:34;;;;;;;8.27;7.57;;;;;;;;;;5000372;28;20470;-84
2022/04/21 04:03:00;;;;;;;11.40;6.20;;;;;;;;;;5010135;28;20419;-85
2022/04/21 04:05:27;;;;;;;7.27;6.77;;;;;;;;;;5008396;28;20434;-86
2022/04/21 04:10:52;;;;;;;10.00;7.47;;;;;;;;;;5016794;28;20434;-86
2022/04/21 04:13:19;;;;;;;9.30;8.40;;;;;;;;;;5010371;28;20421;-86
2022/04/21 04:15:48;;;;;;;7.50;7.10;;;;;;;;;;5004752;28;20455;-86
2022/04/21 04:18:15;;;;;;;7.33;6.70;;;;;;;;;;5026960;28;20616;-86
2022/04/21 04:20:41;;;;;;;7.93;7.50;;;;;;;;;;5026347;28;20551;-86
2022/04/21 04:23:07;;;;;;;8.37;7.77;;;;;;;;;;5010168;28;20431;-86
2022/04/21 04:25:36;;;;;;;8.73;8.13;;;;;;;;;;5023968;28;20431;-86
2022/04/21 04:28:04;;;;;;;9.67;8.70;;;;;;;;;;5027290;28;20462;-86
2022/04/21 04:30:31;;;;;;;8.40;7.90;;;;;;;;;;5004432;28;20419;-86
2022/04/21 04:32:57;;;;;;;9.97;7.67;;;;;;;;;;5028229;28;20458;-86
2022/04/21 04:35:25;;;;;;;14.57;13.23;;;;;;;;;;5009886;28;20489;-80
2022/04/21 04:37:52;;;;;;;10.03;8.40;;;;;;;;;;5010290;28;20446;-86
2022/04/21 04:40:18;;;;;;;14.07;8.13;;;;;;;;;;4998597;28;21053;-86
2022/04/21 04:42:44;;;;;;;9.40;8.60;;;;;;;;;;4990547;28;21000;-85
2022/04/21 04:48:13;;;;;;;8.50;7.90;;;;;;;;;;4949420;29;20421;-86
2022/04/21 04:50:40;;;;;;;8.77;8.17;;;;;;;;;;4985255;28;20465;-85
2022/04/21 04:53:06;;;;;;;8.32;7.50;;;;;;;;;;4327558;28;10000612;-85
2022/04/21 04:55:32;;;;;;;7.30;6.80;;;;;;;;;;5024381;28;20274;-85
2022/04/21 04:57:58;;;;;;;7.77;7.30;;;;;;;;;;5022425;28;20414;-84
2022/04/21 05:00:24;;;;;;;8.00;7.50;;;;;;;;;;5006430;28;20479;-85
2022/04/21 05:02:50;;;;;;;9.27;8.47;;;;;;;;;;5002762;28;20606;-85
2022/04/21 05:05:16;;;;;;;8.97;8.27;;;;;;;;;;5024187;28;20438;-86
2022/04/21 05:07:45;;;;;;;7.83;7.10;;;;;;;;;;5008496;28;20434;-85
2022/04/21 05:10:12;;;;;;;7.13;6.73;;;;;;;;;;5025907;28;20459;-86
2022/04/21 05:12:38;;;;;;;8.03;7.53;;;;;;;;;;5009617;28;20987;-85
2022/04/21 05:15:04;;;;;;;9.13;8.40;;;;;;;;;;5023317;28;20521;-86
2022/04/21 05:17:30;;;;;;;8.40;7.80;;;;;;;;;;4998703;28;20534;-86
2022/04/21 05:19:57;;;;;;;8.70;8.10;;;;;;;;;;5002728;28;20527;-85
2022/04/21 05:22:28;;;;;;;9.53;7.90;;;;;;;;;;5016490;28;20541;-87
2022/04/21 05:24:54;;;;;;;14.77;8.23;;;;;;;;;;5001985;28;20415;-83
2022/04/21 05:27:20;;;;;;;7.53;7.03;;;;;;;;;;5019426;28;20486;-87
2022/04/21 05:32:36;;;;;;;7.23;6.73;;;;;;;;;;5016963;28;20949;-86
2022/04/21 05:35:02;;;;;;;7.63;7.03;;;;;;;;;;5028349;28;20505;-85
2022/04/21 05:37:28;;;;;;;9.53;7.50;;;;;;;;;;5024899;28;20536;-86
2022/04/21 05:39:54;;;;;;;6.97;6.57;;;;;;;;;;5005521;28;20475;-86
2022/04/21 05:42:22;;;;;;;11.67;6.43;;;;;;;;;;5007568;28;20434;-86
2022/04/21 05:44:49;;;;;;;7.50;6.90;;;;;;;;;;5024688;28;20438;-86
2022/04/21 05:47:15;;;;;;;5.93;5.60;;;;;;;;;;5024234;28;20436;-84
2022/04/21 05:49:41;;;;;;;6.80;6.40;;;;;;;;;;5036838;28;20445;-86
2022/04/21 05:52:08;;;;;;;8.37;7.77;;;;;;;;;;5016822;28;20473;-83
2022/04/21 05:54:34;;;;;;;6.70;6.30;;;;;;;;;;5039433;28;20547;-85
2022/04/21 05:57:00;;;;;;;8.00;7.23;;;;;;;;;;4992879;28;20473;-85
2022/04/21 05:59:26;;;;;;;8.00;5.80;;;;;;;;;;5028829;28;20457;-84
2022/04/21 06:01:52;;;;;;;6.33;5.83;;;;;;;;;;5027644;28;20826;-85
2022/04/21 06:04:22;;;;;;;7.70;6.87;;;;;;;;;;5028064;28;20441;-86
2022/04/21 06:06:50;;;;;;;8.83;6.60;;;;;;;;;;5048363;28;20497;-85
2022/04/21 06:09:15;;;;;;;8.43;6.80;;;;;;;;;;5033046;28;20438;-84
2022/04/21 06:11:43;;;;;;;8.10;7.60;;;;;;;;;;5028496;28;20549;-84
2022/04/21 06:14:09;;;;;;;7.53;6.93;;;;;;;;;;5036948;28;20525;-82
2022/04/21 06:16:35;;;;;;;9.50;7.03;;;;;;;;;;5019988;28;21035;-85
2022/04/21 06:19:02;;;;;;;7.40;6.87;;;;;;;;;;5011231;28;20415;-83
2022/04/21 06:21:28;;;;;;;7.60;7.00;;;;;;;;;;5013319;28;20770;-84
2022/04/21 06:23:54;;;;;;;7.10;6.47;;;;;;;;;;5038084;28;20935;-84
2022/04/21 06:26:25;;;;;;;8.67;8.10;;;;;;;;;;5033264;28;20953;-83
2022/04/21 06:28:51;;;;;;;7.23;6.53;;;;;;;;;;5039538;28;20451;-85
2022/04/21 06:31:17;;;;;;;8.80;7.27;;;;;;;;;;5050635;28;20500;-84
2022/04/21 06:33:43;;;;;;;7.50;7.00;;;;;;;;;;5042705;28;20815;-85
2022/04/21 06:36:09;;;;;;;8.17;7.30;;;;;;;;;;5011749;28;20430;-85
2022/04/21 06:38:35;;;;;;;7.00;6.50;;;;;;;;;;5010858;28;20463;-83
2022/04/21 06:41:02;;;;;;;7.80;7.03;;;;;;;;;;5012242;28;20481;-84
2022/04/21 06:49:01;;;;;;;7.60;7.15;;;;;;;;;;4677691;28;9999754;-85
2022/04/21 06:51:27;;;;;;;6.50;6.10;;;;;;;;;;5027257;28;20633;-83
2022/04/21 06:53:53;;;;;;;7.17;6.23;;;;;;;;;;5025667;28;20546;-82
2022/04/21 06:56:19;;;;;;;6.57;6.13;;;;;;;;;;5026509;28;20485;-86
2022/04/21 06:58:46;;;;;;;6.83;6.43;;;;;;;;;;5009011;28;20806;-86
2022/04/21 07:01:12;;;;;;;11.63;6.70;;;;;;;;;;5046961;28;20910;-84
2022/04/21 07:03:38;;;;;;;6.63;6.20;;;;;;;;;;5028483;28;20504;-86
2022/04/21 07:06:04;;;;;;;6.40;6.10;;;;;;;;;;5047981;28;20413;-85
2022/04/21 07:08:30;;;;;;;6.90;6.50;;;;;;;;;;5029481;28;20426;-85
2022/04/21 07:10:56;;;;;;;6.17;5.77;;;;;;;;;;5028268;28;20432;-85
2022/04/21 07:13:25;;;;;;;6.47;6.17;;;;;;;;;;5030417;28;20426;-86
2022/04/21 07:15:52;;;;;;;6.87;6.47;;;;;;;;;;5046450;28;20440;-87
2022/04/21 07:18:18;;;;;;;8.33;7.80;;;;;;;;;;5046879;28;20410;-85
2022/04/21 07:20:44;;;;;;;6.50;6.10;;;;;;;;;;5029117;28;20496;-85
2022/04/21 07:23:11;;;;;;;7.47;7.00;;;;;;;;;;5029325;28;20418;-86
2022/04/21 07:25:39;;;;;;;5.80;5.60;;;;;;;;;;5031855;28;20876;-85
2022/04/21 07:28:05;;;;;;;8.33;5.60;;;;;;;;;;5007358;28;20422;-85
2022/04/21 07:30:31;;;;;;;5.80;5.50;;;;;;;;;;5012624;28;20449;-86
2022/04/21 07:32:57;;;;;;;7.20;6.87;;;;;;;;;;5029726;28;20407;-84
2022/04/21 07:35:24;;;;;;;6.67;6.17;;;;;;;;;;5010984;28;20808;-85
2022/04/21 07:37:50;;;;;;;8.47;7.73;;;;;;;;;;5032574;28;20441;-85
2022/04/21 07:40:24;;;;;;;7.40;7.00;;;;;;;;;;5050009;28;20472;-86
2022/04/21 07:42:49;;;;;;;6.30;5.80;;;;;;;;;;4993155;28;20462;-84
2022/04/21 07:45:16;;;;;;;6.50;6.00;;;;;;;;;;5011388;28;20427;-84
2022/04/21 07:47:42;;;;;;;6.50;6.00;;;;;;;;;;5009409;28;20426;-85
2022/04/21 07:50:09;;;;;;;5.70;5.40;;;;;;;;;;5011539;28;20423;-84
2022/04/21 07:55:46;;;;;;;5.87;5.67;;;;;;;;;;5031124;28;20504;-83
2022/04/21 07:58:14;;;;;;;6.00;5.40;;;;;;;;;;5011219;28;20413;-82
2022/04/21 08:00:44;;;;;;;6.13;5.70;;;;;;;;;;5030046;28;20496;-80
2022/04/21 08:03:10;;;;;;;6.03;5.70;;;;;;;;;;5030858;28;20584;-82
2022/04/21 08:05:36;;;;;;;5.47;5.30;;;;;;;;;;5047724;28;20417;-83
2022/04/21 08:08:03;;;;;;;5.33;5.13;;;;;;;;;;4682211;28;10000436;-81
2022/04/21 08:10:29;;;;;;;5.50;5.20;;;;;;;;;;5007846;28;20445;-83
2022/04/21 08:13:02;;;;;;;5.17;5.07;;;;;;;;;;5021250;28;20476;-83
2022/04/21 08:15:29;;;;;;;5.00;4.70;;;;;;;;;;5028591;28;20437;-83
2022/04/21 08:17:56;;;;;;;4.13;3.93;;;;;;;;;;5026392;28;20429;-82
2022/04/21 08:20:23;;;;;;;5.30;5.00;;;;;;;;;;5035015;28;20561;-83
2022/04/21 08:22:49;;;;;;;4.80;4.37;;;;;;;;;;5037784;28;20441;-81
2022/04/21 08:33:32;;;;;;;5.20;4.90;;;;;;;;;;5021388;28;20462;-81
2022/04/21 08:36:21;;;;;;;4.00;4.00;;;;;;;;;;4992699;28;20435;-83
2022/04/21 08:38:47;;;;;;;4.70;4.40;;;;;;;;;;5017241;28;20498;-84
2022/04/21 08:41:17;;;;;;;3.90;3.80;;;;;;;;;;5017076;28;20480;-83
2022/04/21 08:43:46;;;;;;;3.00;2.90;;;;;;;;;;5050145;28;20752;-82
2022/04/21 08:46:17;;;;;;;3.87;3.77;;;;;;;;;;5031018;28;21034;-84
2022/04/21 08:48:46;;;;;;;3.53;3.30;;;;;;;;;;5030397;28;20818;-82
2022/04/21 08:51:13;;;;;;;3.33;3.33;;;;;;;;;;5019785;28;20417;-83
2022/04/21 08:53:43;;;;;;;4.50;4.10;;;;;;;;;;5049610;28;20790;-84
2022/04/21 08:56:10;;;;;;;3.70;3.40;;;;;;;;;;5031112;28;20468;-83
2022/04/21 08:58:39;;;;;;;6.27;4.00;;;;;;;;;;5050120;28;20422;-83
2022/04/21 09:01:08;;;;;;;4.27;4.07;;;;;;;;;;5029428;28;20481;-82
2022/04/21 09:03:36;;;;;;;4.33;4.13;;;;;;;;;;5015986;28;20473;-83
2022/04/21 09:06:03;;;;;;;4.40;4.03;;;;;;;;;;5049114;28;20422;-83
2022/04/21 09:08:29;;;;;;;4.03;3.70;;;;;;;;;;5049169;28;20446;-84
2022/04/21 09:11:08;;;;;;;3.20;3.10;;;;;;;;;;5046831;28;20450;-84
2022/04/21 09:13:42;;;;;;;4.10;3.70;;;;;;;;;;5031812;28;20463;-83
2022/04/21 09:16:14;;;;;;;3.30;3.10;;;;;;;;;;5029560;28;20436;-82
2022/04/21 09:18:46;;;;;;;3.87;3.67;;;;;;;;;;5050228;28;20764;-84
2022/04/21 09:21:14;;;;;;;4.37;4.10;;;;;;;;;;5030998;28;20573;-82
2022/04/21 09:23:40;;;;;;;4.23;4.00;;;;;;;;;;5030536;28;20807;-83
2022/04/21 09:26:11;;;;;;;5.33;4.03;;;;;;;;;;5028691;28;20430;-82
2022/04/21 09:28:39;;;;;;;4.77;4.47;;;;;;;;;;5046668;28;20486;-86
2022/04/21 09:31:18;;;;;;;4.17;3.83;;;;;;;;;;5012190;28;20979;-85
2022/04/21 09:33:47;;;;;;;4.03;3.80;;;;;;;;;;5010888;28;20431;-85
2022/04/21 09:36:16;;;;;;;4.53;4.37;;;;;;;;;;5017571;28;20512;-85
2022/04/21 09:38:42;;;;;;;3.63;3.43;;;;;;;;;;5009462;28;20718;-84
2022/04/21 09:41:17;;;;;;;3.50;3.30;;;;;;;;;;5030252;28;20473;-84
2022/04/21 09:43:47;;;;;;;4.43;3.00;;;;;;;;;;5014867;28;20428;-86
2022/04/21 09:46:15;;;;;;;3.37;3.27;;;;;;;;;;5027610;28;20526;-85
2022/04/21 09:48:48;;;;;;;3.00;2.80;;;;;;;;;;5029507;28;20422;-85
2022/04/21 09:51:16;;;;;;;3.23;2.93;;;;;;;;;;5025061;28;20424;-82
2022/04/21 09:53:57;;;;;;;3.50;3.40;;;;;;;;;;5014418;28;20616;-85
2022/04/21 09:56:34;;;;;;;3.47;3.20;;;;;;;;;;5014564;28;20469;-84
2022/04/21 09:59:12;;;;;;;3.33;3.20;;;;;;;;;;5035584;28;20496;-83
2022/04/21 10:01:56;;;;;;;3.40;3.10;;;;;;;;;;5045806;28;20510;-85
2022/04/21 10:04:22;;;;;;;3.43;3.23;;;;;;;;;;5030045;28;20414;-82
2022/04/21 10:06:49;;;;;;;3.97;3.77;;;;;;;;;;5005565;28;20529;-85
2022/04/21 10:09:18;;;;;;;4.80;3.50;;;;;;;;;;5012585;28;20427;-86
2022/04/21 10:11:57;;;;;;;5.03;3.60;;;;;;;;;;5040748;28;20452;-85
2022/04/21 10:14:33;;;;;;;2.93;2.93;;;;;;;;;;5015848;28;20422;-86
2022/04/21 10:17:28;;;;;;;3.80;3.50;;;;;;;;;;5051352;28;20491;-86
2022/04/21 10:19:54;;;;;;;3.67;3.47;;;;;;;;;;5013240;28;20492;-84
2022/04/21 10:22:20;;;;;;;3.63;3.30;;;;;;;;;;5040577;28;20474;-86
2022/04/21 10:24:48;;;;;;;4.27;3.90;;;;;;;;;;5019208;28;20430;-87
2022/04/21 10:27:33;;;;;;;3.97;3.70;;;;;;;;;;5013508;28;20791;-87
2022/04/21 10:30:04;;;;;;;3.50;3.23;;;;;;;;;;5006884;28;20422;-85
2022/04/21 10:32:50;;;;;;;3.33;3.23;;;;;;;;;;5011191;28;20427;-83
2022/04/21 10:35:28;;;;;;;3.93;3.73;;;;;;;;;;5017014;28;20437;-87
2022/04/21 10:38:13;;;;;;;4.73;3.77;;;;;;;;;;5011928;28;20496;-87
2022/04/21 10:40:57;;;;;;;5.97;5.47;;;;;;;;;;5035432;28;20557;-84
2022/04/21 10:43:24;;;;;;;4.70;4.50;;;;;;;;;;4685294;28;10001140;-81
2022/04/21 10:46:06;;;;;;;4.53;4.33;;;;;;;;;;5013644;28;20442;-87
2022/04/21 10:48:45;;;;;;;4.07;3.73;;;;;;;;;;5012338;28;20431;-87
2022/04/21 10:51:19;;;;;;;5.93;4.20;;;;;;;;;;5011494;28;20438;-87
2022/04/21 10:57:12;;;;;;;5.00;4.60;;;;;;;;;;5020415;28;20500;-87
2022/04/21 10:59:49;;;;;;;4.00;3.67;;;;;;;;;;4669064;28;10000249;-85
2022/04/21 11:02:15;;;;;;;9.83;5.17;;;;;;;;;;4992670;28;20558;-84
2022/04/21 11:04:41;;;;;;;4.70;4.37;;;;;;;;;;5011226;28;20420;-84
2022/04/21 11:07:16;;;;;;;5.93;4.60;;;;;;;;;;4992884;28;20751;-85
2022/04/21 11:09:48;;;;;;;4.43;4.20;;;;;;;;;;4992667;28;20775;-86
2022/04/21 11:12:18;;;;;;;4.97;4.67;;;;;;;;;;4993874;28;20427;-86
2022/04/21 11:14:45;;;;;;;4.70;4.40;;;;;;;;;;4992437;28;20485;-86
2022/04/21 11:17:12;;;;;;;5.67;4.47;;;;;;;;;;5011998;28;20902;-85
2022/04/21 11:19:56;;;;;;;5.53;5.03;;;;;;;;;;5015327;28;20447;-86
2022/04/21 11:22:40;;;;;;;4.50;4.10;;;;;;;;;;5033465;28;20438;-84
2022/04/21 11:25:06;;;;;;;5.20;4.47;;;;;;;;;;5050058;28;20425;-85
2022/04/21 11:27:34;;;;;;;4.30;4.10;;;;;;;;;;5033723;28;20512;-83
2022/04/21 11:30:05;;;;;;;4.67;4.27;;;;;;;;;;5017129;28;20447;-85
2022/04/21 11:32:31;;;;;;;4.00;3.77;;;;;;;;;;5016546;28;20415;-84
2022/04/21 11:35:09;;;;;;;4.80;4.60;;;;;;;;;;4997149;28;20840;-84
2022/04/21 11:37:44;;;;;;;4.90;4.60;;;;;;;;;;5014549;28;20775;-85
2022/04/21 11:40:21;;;;;;;6.17;4.70;;;;;;;;;;5034175;28;20465;-82
2022/04/21 11:42:49;;;;;;;4.43;4.33;;;;;;;;;;5032966;28;20500;-84
2022/04/21 11:45:28;;;;;;;4.77;4.33;;;;;;;;;;5031540;28;20430;-84
2022/04/21 11:47:55;;;;;;;5.13;4.80;;;;;;;;;;5046971;28;20407;-84
2022/04/21 11:50:25;;;;;;;5.30;4.80;;;;;;;;;;5027303;28;20437;-85
2022/04/21 11:52:55;;;;;;;5.20;4.83;;;;;;;;;;5059181;28;20525;-82
2022/04/21 11:55:25;;;;;;;5.13;4.70;;;;;;;;;;5044665;28;20966;-84
2022/04/21 11:57:51;;;;;;;4.83;4.53;;;;;;;;;;5059752;28;20926;-84
2022/04/21 12:06:27;;;;;;;5.70;4.80;;;;;;;;;;5052621;28;20469;-82
2022/04/21 12:08:35;;;;;;;5.20;4.80;;;;;;;;;;5051221;28;20436;-84
2022/04/21 12:11:04;;;;;;;5.80;5.53;;;;;;;;;;5049110;28;20414;-84
2022/04/21 12:13:33;;;;;;;4.27;4.17;;;;;;;;;;5051388;28;20417;-84
2022/04/21 12:16:00;;;;;;;5.23;4.93;;;;;;;;;;5032174;28;20430;-84
2022/04/21 12:18:26;;;;;;;6.93;6.30;;;;;;;;;;5049258;28;20536;-83
2022/04/21 12:20:53;;;;;;;8.10;4.80;;;;;;;;;;5049696;28;20523;-85
2022/04/21 12:23:22;;;;;;;4.20;4.10;;;;;;;;;;5031852;28;20823;-84
2022/04/21 12:25:49;;;;;;;5.77;5.33;;;;;;;;;;5029546;28;20425;-82
2022/04/21 12:28:18;;;;;;;4.93;4.63;;;;;;;;;;5031007;28;20441;-83
2022/04/21 12:30:44;;;;;;;5.60;5.10;;;;;;;;;;5022182;28;20437;-84
2022/04/21 12:33:10;;;;;;;5.37;4.87;;;;;;;;;;5012132;28;20445;-84
2022/04/21 12:35:44;;;;;;;5.37;4.97;;;;;;;;;;4313857;28;10000684;-84
2022/04/21 12:40:56;;;;;;;4.57;4.37;;;;;;;;;;5022901;28;20486;-85
2022/04/21 12:43:23;;;;;;;4.87;4.50;;;;;;;;;;5020112;28;20477;-85
2022/04/21 12:45:49;;;;;;;5.90;5.30;;;;;;;;;;5020215;28;20430;-85
2022/04/21 12:48:45;;;;;;;7.10;5.50;;;;;;;;;;5013407;28;20830;-84
2022/04/21 12:51:18;;;;;;;4.77;4.40;;;;;;;;;;5008486;28;20442;-82
2022/04/21 12:53:44;;;;;;;5.97;5.57;;;;;;;;;;5016152;28;20442;-85
2022/04/21 12:56:11;;;;;;;5.27;4.93;;;;;;;;;;5038062;28;20474;-85
2022/04/21 12:58:38;;;;;;;5.80;5.30;;;;;;;;;;5029136;28;20423;-86
2022/04/21 13:01:11;;;;;;;6.47;5.80;;;;;;;;;;5018336;28;20493;-85
2022/04/21 13:03:41;;;;;;;5.33;4.83;;;;;;;;;;5008482;28;20449;-85
2022/04/21 13:06:07;;;;;;;5.83;5.43;;;;;;;;;;5033871;28;20445;-87
2022/04/21 13:08:33;;;;;;;6.57;6.17;;;;;;;;;;5023672;28;20431;-86
2022/04/21 13:11:16;;;;;;;5.90;5.50;;;;;;;;;;5009814;28;20445;-84
2022/04/21 13:13:42;;;;;;;6.50;6.10;;;;;;;;;;4992223;28;20963;-84
2022/04/21 13:16:08;;;;;;;6.77;6.20;;;;;;;;;;5011644;28;20578;-85
2022/04/21 13:18:37;;;;;;;6.03;5.67;;;;;;;;;;5029539;28;20434;-85
2022/04/21 13:23:53;;;;;;;5.73;5.57;;;;;;;;;;5027094;28;20438;-84
2022/04/21 13:26:21;;;;;;;5.83;5.53;;;;;;;;;;5023605;28;20426;-84
2022/04/21 13:28:47;;;;;;;6.60;6.10;;;;;;;;;;5027963;28;20462;-84
2022/04/21 13:33:58;;;;;;;6.30;5.70;;;;;;;;;;5024117;28;20484;-85
2022/04/21 13:36:24;;;;;;;6.97;6.30;;;;;;;;;;5032879;28;20423;-86
2022/04/21 13:38:50;;;;;;;7.70;5.77;;;;;;;;;;5032135;28;20426;-85
2022/04/21 13:41:19;;;;;;;5.40;5.20;;;;;;;;;;5033202;28;20520;-86
2022/04/21 13:43:45;;;;;;;6.57;6.13;;;;;;;;;;5023501;28;20429;-87
2022/04/21 13:46:11;;;;;;;11.53;5.50;;;;;;;;;;5034131;28;20429;-85
2022/04/21 13:48:38;;;;;;;6.43;6.00;;;;;;;;;;5013805;28;20418;-85
2022/04/21 13:51:06;;;;;;;6.90;6.50;;;;;;;;;;5015684;28;20888;-84
2022/04/21 13:53:32;;;;;;;6.93;6.53;;;;;;;;;;5015936;28;20435;-84
2022/04/21 13:56:05;;;;;;;7.17;6.67;;;;;;;;;;5015384;28;20462;-85
2022/04/21 13:58:34;;;;;;;6.73;5.47;;;;;;;;;;5028973;28;20942;-85
2022/04/21 14:01:06;;;;;;;6.27;6.03;;;;;;;;;;5038933;28;20480;-85
2022/04/21 14:03:41;;;;;;;6.37;6.00;;;;;;;;;;5032122;28;20981;-84
2022/04/21 14:06:33;;;;;;;7.10;6.60;;;;;;;;;;5016010;28;20407;-85
2022/04/21 14:09:05;;;;;;;6.83;6.23;;;;;;;;;;5027889;28;20430;-85
2022/04/21 14:11:31;;;;;;;6.43;6.03;;;;;;;;;;4984146;28;20456;-85
2022/04/21 14:13:57;;;;;;;7.50;6.87;;;;;;;;;;5029520;28;20434;-84
2022/04/21 14:16:23;;;;;;;5.97;5.50;;;;;;;;;;5026004;28;20501;-82
2022/04/21 14:18:49;;;;;;;7.37;6.97;;;;;;;;;;5026637;28;20464;-80
2022/04/21 14:21:18;;;;;;;7.20;6.73;;;;;;;;;;5022920;28;20549;-80
2022/04/21 14:23:44;;;;;;;7.77;7.03;;;;;;;;;;5008021;28;20472;-81
2022/04/21 14:26:25;;;;;;;6.60;6.10;;;;;;;;;;5024948;28;20446;-82
2022/04/21 14:29:17;;;;;;;6.50;5.87;;;;;;;;;;4987683;28;20486;-84
2022/04/21 14:31:54;;;;;;;6.87;6.47;;;;;;;;;;4971567;28;20641;-84
2022/04/21 14:34:42;;;;;;;;;;;;;;;;;;;;;
2022/04/21 14:37:09;;;;;;;6.40;6.10;;;;;;;;;;4987739;28;20940;-82
2022/04/21 14:45:04;;;;;;;6.83;6.40;;;;;;;;;;5009985;28;20499;-84
2022/04/21 14:47:30;;;;;;;8.87;8.17;;;;;;;;;;4973824;28;20789;-84
2022/04/21 14:49:56;;;;;;;6.77;6.47;;;;;;;;;;4971752;28;20460;-82
2022/04/21 14:52:22;;;;;;;7.90;7.30;;;;;;;;;;4988419;28;20444;-84
2022/04/21 14:54:51;;;;;;;8.10;7.53;;;;;;;;;;5000590;28;21093;-83
2022/04/21 14:57:19;;;;;;;7.60;6.97;;;;;;;;;;4988113;28;20432;-84
2022/04/21 14:59:45;;;;;;;8.13;7.50;;;;;;;;;;5018282;28;20435;-83
2022/04/21 15:02:11;;;;;;;7.20;6.70;;;;;;;;;;5036174;28;20474;-82
2022/04/21 15:04:37;;;;;;;7.20;6.90;;;;;;;;;;5010749;28;20483;-84
2022/04/21 15:07:08;;;;;;;7.57;7.03;;;;;;;;;;5000683;28;21080;-85
2022/04/21 15:09:34;;;;;;;8.07;7.20;;;;;;;;;;5035496;28;20438;-85
2022/04/21 15:12:01;;;;;;;10.90;7.20;;;;;;;;;;5037001;28;20429;-83
2022/04/21 15:14:27;;;;;;;7.10;6.70;;;;;;;;;;5033362;28;20448;-85
2022/04/21 15:16:53;;;;;;;6.77;6.37;;;;;;;;;;5037557;28;20451;-83
2022/04/21 15:19:22;;;;;;;7.53;7.10;;;;;;;;;;5051888;28;20433;-84
2022/04/21 15:21:51;;;;;;;7.17;6.67;;;;;;;;;;5040415;28;20473;-81
2022/04/21 15:24:20;;;;;;;8.20;6.33;;;;;;;;;;5052309;28;20418;-83
2022/04/21 15:26:46;;;;;;;7.83;7.23;;;;;;;;;;5023888;28;20451;-82
2022/04/21 15:29:12;;;;;;;7.50;5.80;;;;;;;;;;5019682;28;20431;-83
2022/04/21 15:31:41;;;;;;;6.90;6.40;;;;;;;;;;5041519;28;20423;-84
2022/04/21 15:34:10;;;;;;;7.70;6.73;;;;;;;;;;5034807;28;20429;-82
2022/04/21 15:36:38;;;;;;;9.17;6.33;;;;;;;;;;5042372;28;20435;-81
2022/04/21 15:39:13;;;;;;;6.63;5.97;;;;;;;;;;5035093;28;20868;-83
2022/04/21 15:41:39;;;;;;;6.63;6.13;;;;;;;;;;5022781;28;20594;-85
2022/04/21 15:44:05;;;;;;;5.87;5.47;;;;;;;;;;5053822;28;20417;-84
2022/04/21 15:46:49;;;;;;;5.77;5.37;;;;;;;;;;5021452;28;20811;-85
2022/04/21 15:49:15;;;;;;;6.47;5.97;;;;;;;;;;5022331;28;20454;-83
2022/04/21 15:51:44;;;;;;;6.90;5.67;;;;;;;;;;5024500;28;20423;-83
2022/04/21 15:59:39;;;;;;;7.50;6.70;;;;;;;;;;5027877;28;20846;-88
2022/04/21 16:02:06;;;;;;;5.40;5.30;;;;;;;;;;5039389;28;21165;-84
2022/04/21 16:04:32;;;;;;;5.50;5.20;;;;;;;;;;5031634;28;20430;-85